createdAt,value
2019-05-28T00:01:45.611Z,3.37
2019-05-28T00:04:13.081Z,3.60
2019-05-28T00:06:40.599Z,3.30
2019-05-28T00:09:08.345Z,3.60
2019-05-28T00:11:36.328Z,3.50
2019-05-28T00:14:04.848Z,3.40
2019-05-28T00:16:32.352Z,3.50
2019-05-28T00:19:00.105Z,3.73
2019-05-28T00:21:27.871Z,4.10
2019-05-28T00:23:55.267Z,3.30
2019-05-28T00:26:22.608Z,2.93
2019-05-28T00:28:50.496Z,2.67
2019-05-28T00:31:18.215Z,3.80
2019-05-28T00:33:45.671Z,3.17
2019-05-28T00:36:13.266Z,3.70
2019-05-28T00:38:40.750Z,3.67
2019-05-28T00:41:08.458Z,4.10
2019-05-28T00:43:36.015Z,3.57
2019-05-28T00:46:04.314Z,3.80
2019-05-28T00:48:31.820Z,3.33
2019-05-28T00:50:59.781Z,2.90
2019-05-28T00:53:28.525Z,3.23
2019-05-28T00:55:56.385Z,3.90
2019-05-28T00:58:24.739Z,3.93
2019-05-28T01:00:52.526Z,3.97
2019-05-28T01:03:19.920Z,4.10
2019-05-28T01:05:47.322Z,3.80
2019-05-28T01:08:14.908Z,3.63
2019-05-28T01:10:42.811Z,4.03
2019-05-28T01:13:10.676Z,3.63
2019-05-28T01:15:38.503Z,4.30
2019-05-28T01:18:05.984Z,4.23
2019-05-28T01:20:33.473Z,3.73
2019-05-28T01:23:00.894Z,3.70
2019-05-28T01:25:28.391Z,4.17
2019-05-28T01:27:56.084Z,3.60
2019-05-28T01:30:23.516Z,3.40
2019-05-28T01:32:51.579Z,3.80
2019-05-28T01:35:19.094Z,3.80
2019-05-28T01:37:46.631Z,3.63
2019-05-28T01:40:14.684Z,2.83
2019-05-28T01:42:42.613Z,3.57
2019-05-28T01:45:10.291Z,4.07
2019-05-28T01:47:37.691Z,3.53
2019-05-28T01:50:05.948Z,4.03
2019-05-28T01:52:33.931Z,4.10
2019-05-28T01:55:01.437Z,3.67
2019-05-28T01:57:29.115Z,2.90
2019-05-28T01:59:56.616Z,3.17
2019-05-28T02:02:24.149Z,3.30
2019-05-28T02:04:52.088Z,2.57
2019-05-28T02:07:19.784Z,3.80
2019-05-28T02:09:47.378Z,3.80
2019-05-28T02:12:15.532Z,3.03
2019-05-28T02:14:42.880Z,3.50
2019-05-28T02:17:10.239Z,3.20
2019-05-28T02:19:38.619Z,3.10
2019-05-28T02:22:06.605Z,3.30
2019-05-28T02:24:33.950Z,3.63
2019-05-28T02:27:01.711Z,3.47
2019-05-28T02:29:30.488Z,2.80
2019-05-28T02:31:58.079Z,3.53
2019-05-28T02:34:25.468Z,3.77
2019-05-28T02:36:52.824Z,3.30
2019-05-28T02:39:21.272Z,2.80
2019-05-28T02:41:48.594Z,3.47
2019-05-28T02:44:16.200Z,3.13
2019-05-28T02:46:43.555Z,3.60
2019-05-28T02:49:11.157Z,3.23
2019-05-28T02:51:39.072Z,3.50
2019-05-28T02:54:06.604Z,3.13
2019-05-28T02:56:35.494Z,2.90
2019-05-28T02:59:03.103Z,2.73
2019-05-28T03:01:43.510Z,3.37
2019-05-28T03:04:03.535Z,3.50
2019-05-28T03:06:32.883Z,3.17
2019-05-28T03:09:03.952Z,3.23
2019-05-28T03:11:31.873Z,2.90
2019-05-28T03:13:59.479Z,3.10
2019-05-28T03:16:30.351Z,3.13
2019-05-28T03:18:58.852Z,3.20
2019-05-28T03:21:28.092Z,3.50
2019-05-28T03:23:57.631Z,2.93
2019-05-28T03:26:25.470Z,3.40
2019-05-28T03:28:52.966Z,3.47
2019-05-28T03:31:20.995Z,3.30
2019-05-28T03:33:48.660Z,3.80
2019-05-28T03:36:17.743Z,3.60
2019-05-28T03:38:45.600Z,3.70
2019-05-28T03:41:13.094Z,3.60
2019-05-28T03:43:40.826Z,3.70
2019-05-28T03:46:08.287Z,3.27
2019-05-28T03:48:36.241Z,3.70
2019-05-28T03:51:04.012Z,4.13
2019-05-28T03:53:31.373Z,3.30
2019-05-28T03:55:58.761Z,3.70
2019-05-28T03:58:26.473Z,3.90
2019-05-28T04:00:53.962Z,3.00
2019-05-28T04:03:21.436Z,3.70
2019-05-28T04:05:49.151Z,3.80
2019-05-28T04:08:16.585Z,4.40
2019-05-28T04:10:45.238Z,4.43
2019-05-28T04:13:12.873Z,3.70
2019-05-28T04:15:41.033Z,4.10
2019-05-28T04:18:08.927Z,4.23
2019-05-28T04:20:37.187Z,4.00
2019-05-28T04:23:09.317Z,4.00
2019-05-28T04:25:38.161Z,3.93
2019-05-28T04:28:05.707Z,4.57
2019-05-28T04:30:33.164Z,4.63
2019-05-28T04:33:00.707Z,5.00
2019-05-28T04:35:28.028Z,4.63
2019-05-28T04:37:55.843Z,4.90
2019-05-28T04:40:23.697Z,4.00
2019-05-28T04:42:51.081Z,4.30
2019-05-28T04:45:18.419Z,4.73
2019-05-28T04:47:46.175Z,4.90
2019-05-28T04:50:14.640Z,4.40
2019-05-28T04:52:42.062Z,4.70
2019-05-28T04:55:10.665Z,4.53
2019-05-28T04:57:41.032Z,4.63
2019-05-28T05:00:09.132Z,5.50
2019-05-28T05:02:36.761Z,5.10
2019-05-28T05:05:04.948Z,5.20
2019-05-28T05:07:32.601Z,4.70
2019-05-28T05:10:00.069Z,4.87
2019-05-28T05:12:27.476Z,4.70
2019-05-28T05:14:54.868Z,4.30
2019-05-28T05:17:23.249Z,4.40
2019-05-28T05:19:50.746Z,4.20
2019-05-28T05:22:18.285Z,4.20
2019-05-28T05:24:46.122Z,4.13
2019-05-28T05:27:14.090Z,4.90
2019-05-28T05:29:41.582Z,3.97
2019-05-28T05:32:09.423Z,4.40
2019-05-28T05:34:37.118Z,3.93
2019-05-28T05:37:05.372Z,4.77
2019-05-28T05:39:32.705Z,4.10
2019-05-28T05:42:00.626Z,4.83
2019-05-28T05:44:28.122Z,4.13
2019-05-28T05:46:55.492Z,4.63
2019-05-28T05:49:23.000Z,4.90
2019-05-28T05:51:50.508Z,4.67
2019-05-28T05:54:18.381Z,4.70
2019-05-28T05:56:46.540Z,4.80
2019-05-28T05:59:14.026Z,3.90
2019-05-28T06:01:41.409Z,4.20
2019-05-28T06:04:08.918Z,4.20
2019-05-28T06:06:36.887Z,4.67
2019-05-28T06:09:05.971Z,4.77
2019-05-28T06:11:33.351Z,4.00
2019-05-28T06:14:01.000Z,5.20
2019-05-28T06:16:28.370Z,4.00
2019-05-28T06:18:55.885Z,4.00
2019-05-28T06:21:23.660Z,3.87
2019-05-28T06:23:51.432Z,3.67
2019-05-28T06:26:18.812Z,4.40
2019-05-28T06:28:46.153Z,4.53
2019-05-28T06:31:14.929Z,3.97
2019-05-28T06:33:55.605Z,4.50
2019-05-28T06:36:11.746Z,4.00
2019-05-28T06:38:39.573Z,4.20
2019-05-28T06:41:07.031Z,4.50
2019-05-28T06:43:34.603Z,5.10
2019-05-28T06:46:02.343Z,4.03
2019-05-28T06:48:29.698Z,4.10
2019-05-28T06:50:57.186Z,3.60
2019-05-28T06:53:24.673Z,4.97
2019-05-28T06:55:52.201Z,4.33
2019-05-28T06:58:37.567Z,4.40
2019-05-28T07:00:49.036Z,4.60
2019-05-28T07:03:16.484Z,4.00
2019-05-28T07:05:44.761Z,5.10
2019-05-28T07:08:12.510Z,4.77
2019-05-28T07:10:56.669Z,4.37
2019-05-28T07:13:09.691Z,4.50
2019-05-28T07:15:37.557Z,4.33
2019-05-28T07:18:04.932Z,5.10
2019-05-28T07:20:32.776Z,4.63
2019-05-28T07:23:00.712Z,4.43
2019-05-28T07:25:28.519Z,5.47
2019-05-28T07:28:10.286Z,4.50
2019-05-28T07:30:25.915Z,5.10
2019-05-28T07:32:53.658Z,5.07
2019-05-28T07:35:21.148Z,5.17
2019-05-28T07:37:48.593Z,5.57
2019-05-28T07:40:30.546Z,4.80
2019-05-28T07:42:45.800Z,5.10
2019-05-28T07:45:14.210Z,4.57
2019-05-28T07:47:41.819Z,4.87
2019-05-28T07:50:09.502Z,5.53
2019-05-28T07:52:37.176Z,5.40
2019-05-28T07:55:05.077Z,5.07
2019-05-28T07:57:32.938Z,5.00
2019-05-28T08:00:05.291Z,5.03
2019-05-28T08:02:31.232Z,6.60
2019-05-28T08:04:58.611Z,6.07
2019-05-28T08:07:26.443Z,6.20
2019-05-28T08:09:54.111Z,5.27
2019-05-28T08:12:33.531Z,5.80
2019-05-28T08:15:01.487Z,5.70
2019-05-28T08:17:29.130Z,5.23
2019-05-28T08:19:56.598Z,5.37
2019-05-28T08:22:38.715Z,6.00
2019-05-28T08:24:55.069Z,4.67
2019-05-28T08:27:22.598Z,5.30
2019-05-28T08:29:50.036Z,5.50
2019-05-28T08:32:17.648Z,5.13
2019-05-28T08:34:45.045Z,4.67
2019-05-28T08:37:12.512Z,4.53
2019-05-28T08:39:40.999Z,5.40
2019-05-28T08:42:08.369Z,4.83
2019-05-28T08:44:35.731Z,4.77
2019-05-28T08:47:03.587Z,4.40
2019-05-28T08:49:31.180Z,4.17
2019-05-28T08:51:58.571Z,3.90
2019-05-28T08:54:25.975Z,4.00
2019-05-28T08:56:53.493Z,3.20
2019-05-28T08:59:21.003Z,3.67
2019-05-28T09:01:48.621Z,3.23
2019-05-28T09:04:16.095Z,3.43
2019-05-28T09:06:44.147Z,3.90
2019-05-28T09:09:12.218Z,3.10
2019-05-28T09:11:40.199Z,2.90
2019-05-28T09:14:08.486Z,3.20
2019-05-28T09:16:36.846Z,3.53
2019-05-28T09:19:04.287Z,3.20
2019-05-28T09:21:31.696Z,2.90
2019-05-28T09:23:59.436Z,3.33
2019-05-28T09:26:27.177Z,3.17
2019-05-28T09:28:55.443Z,2.60
2019-05-28T09:31:23.497Z,2.53
2019-05-28T09:33:50.984Z,3.20
2019-05-28T09:36:18.486Z,3.60
2019-05-28T09:38:45.861Z,3.00
2019-05-28T09:41:13.299Z,3.03
2019-05-28T09:43:40.667Z,2.73
2019-05-28T09:46:08.180Z,2.80
2019-05-28T09:48:35.669Z,2.87
2019-05-28T09:51:04.124Z,2.57
2019-05-28T09:53:34.682Z,2.50
2019-05-28T09:56:01.095Z,2.50
2019-05-28T09:58:28.689Z,2.63
2019-05-28T10:00:58.657Z,2.67
2019-05-28T10:03:25.631Z,2.03
2019-05-28T10:06:01.967Z,2.60
2019-05-28T10:08:22.830Z,2.83
2019-05-28T10:10:50.518Z,2.53
2019-05-28T10:13:18.036Z,2.60
2019-05-28T10:15:45.496Z,2.57
2019-05-28T10:18:13.094Z,2.30
2019-05-28T10:20:40.963Z,2.40
2019-05-28T10:23:08.347Z,2.63
2019-05-28T10:25:36.491Z,1.80
2019-05-28T10:28:04.043Z,2.00
2019-05-28T10:30:31.812Z,1.87
2019-05-28T10:33:00.246Z,1.80
2019-05-28T10:35:28.161Z,1.60
2019-05-28T10:37:55.669Z,1.77
2019-05-28T10:40:23.340Z,2.00
2019-05-28T10:42:50.862Z,1.50
2019-05-28T10:45:19.221Z,1.90
2019-05-28T10:47:46.993Z,1.87
2019-05-28T10:50:15.977Z,1.43
2019-05-28T10:52:43.464Z,2.07
2019-05-28T10:55:11.164Z,1.70
2019-05-28T10:57:39.211Z,1.97
2019-05-28T11:00:07.069Z,1.97
2019-05-28T11:02:34.700Z,2.00
2019-05-28T11:05:02.040Z,1.60
2019-05-28T11:07:29.908Z,1.77
2019-05-28T11:09:57.295Z,1.63
2019-05-28T11:12:25.036Z,1.73
2019-05-28T11:14:52.660Z,1.63
2019-05-28T11:17:20.318Z,2.13
2019-05-28T11:19:47.740Z,1.40
2019-05-28T11:22:16.146Z,2.00
2019-05-28T11:24:43.521Z,1.60
2019-05-28T11:27:11.215Z,2.37
2019-05-28T11:29:38.658Z,1.73
2019-05-28T11:32:06.337Z,1.73
2019-05-28T11:36:14.023Z,1.40
2019-05-28T11:53:16.282Z,1.73
2019-05-28T11:55:44.338Z,1.50
2019-05-28T11:58:11.854Z,1.70
2019-05-28T12:00:39.692Z,2.00
2019-05-28T12:03:07.067Z,2.10
2019-05-28T12:05:34.564Z,1.70
2019-05-28T12:08:01.882Z,1.83
2019-05-28T12:10:29.334Z,1.63
2019-05-28T12:12:56.668Z,1.60
2019-05-28T12:15:24.362Z,1.97
2019-05-28T12:17:51.770Z,1.80
2019-05-28T12:20:20.575Z,1.40
2019-05-28T12:22:48.240Z,1.80
2019-05-28T12:25:16.131Z,1.53
2019-05-28T12:27:43.972Z,1.53
2019-05-28T12:30:17.786Z,1.40
2019-05-28T12:32:43.190Z,1.40
2019-05-28T12:35:27.312Z,1.20
2019-05-28T12:37:48.667Z,1.90
2019-05-28T12:40:13.974Z,1.87
2019-05-28T12:42:41.768Z,1.80
2019-05-28T12:45:10.490Z,1.67
2019-05-28T12:47:38.020Z,1.30
2019-05-28T12:50:19.262Z,1.37
2019-05-28T12:52:38.091Z,1.23
2019-05-28T12:55:06.143Z,1.33
2019-05-28T12:57:34.152Z,1.90
2019-05-28T13:00:02.203Z,2.03
2019-05-28T13:02:31.338Z,2.20
2019-05-28T13:04:58.931Z,2.00
2019-05-28T13:07:26.438Z,1.60
2019-05-28T13:09:53.995Z,1.40
2019-05-28T13:12:22.107Z,1.57
2019-05-28T13:14:49.691Z,1.40
2019-05-28T13:17:17.465Z,1.60
2019-05-28T13:19:44.978Z,1.50
2019-05-28T13:22:12.342Z,1.70
2019-05-28T13:24:41.399Z,2.90
2019-05-28T13:27:18.187Z,1.33
2019-05-28T13:29:38.942Z,2.07
2019-05-28T13:32:08.652Z,2.13
2019-05-28T13:34:37.494Z,1.70
2019-05-28T13:37:05.343Z,1.30
2019-05-28T13:39:32.740Z,1.40
2019-05-28T14:06:19.199Z,1.53
2019-05-28T14:08:47.636Z,1.63
2019-05-28T14:11:15.624Z,1.83
2019-05-28T14:13:43.115Z,2.40
2019-05-28T14:16:10.474Z,1.63
2019-05-28T14:18:38.268Z,1.93
2019-05-28T14:21:06.021Z,1.60
2019-05-28T14:23:33.656Z,2.03
2019-05-28T14:26:01.142Z,1.90
2019-05-28T14:28:28.463Z,2.20
2019-05-28T14:31:00.141Z,2.10
2019-05-28T14:33:25.646Z,2.27
2019-05-28T14:35:53.021Z,2.30
2019-05-28T14:38:20.723Z,1.87
2019-05-28T14:40:48.185Z,2.03
2019-05-28T14:43:15.664Z,2.70
2019-05-28T14:45:43.152Z,2.10
2019-05-28T14:48:10.554Z,3.07
2019-05-28T14:50:38.113Z,1.60
2019-05-28T14:53:08.912Z,2.17
2019-05-28T14:55:36.656Z,2.30
2019-05-28T14:58:05.586Z,2.00
2019-05-28T15:00:33.738Z,2.00
2019-05-28T15:03:01.526Z,2.10
2019-05-28T15:05:29.315Z,1.63
2019-05-28T15:07:57.116Z,1.80
2019-05-28T15:10:24.690Z,2.73
2019-05-28T15:12:57.430Z,1.73
2019-05-28T15:15:35.844Z,1.90
2019-05-28T15:17:54.662Z,1.70
2019-05-28T15:20:22.262Z,2.07
2019-05-28T15:22:50.655Z,1.73
2019-05-28T15:25:18.320Z,1.50
2019-05-28T15:27:48.707Z,2.23
2019-05-28T15:30:16.778Z,1.80
2019-05-28T15:32:44.118Z,1.50
2019-05-28T15:35:11.997Z,2.50
2019-05-28T15:37:39.762Z,2.07
2019-05-28T15:40:07.972Z,1.60
2019-05-28T15:42:36.080Z,2.23
2019-05-28T15:45:04.562Z,1.70
2019-05-28T15:47:32.416Z,1.60
2019-05-28T15:49:59.898Z,1.83
2019-05-28T15:52:27.836Z,2.03
2019-05-28T15:54:55.494Z,2.30
2019-05-28T15:57:23.031Z,2.20
2019-05-28T15:59:50.415Z,2.07
2019-05-28T16:02:17.891Z,1.87
2019-05-28T16:04:45.273Z,2.20
2019-05-28T16:07:13.865Z,2.20
2019-05-28T16:09:55.077Z,1.90
2019-05-28T16:12:10.584Z,1.80
2019-05-28T16:14:38.469Z,2.00
2019-05-28T16:17:06.191Z,1.87
2019-05-28T16:19:33.671Z,1.97
2019-05-28T16:22:01.873Z,1.60
2019-05-28T16:24:29.528Z,1.50
2019-05-28T16:26:56.822Z,1.40
2019-05-28T16:29:24.387Z,1.80
2019-05-28T16:31:51.706Z,1.70
2019-05-28T16:34:19.213Z,1.70
2019-05-28T16:36:46.860Z,1.60
2019-05-28T16:39:14.451Z,1.73
2019-05-28T16:41:42.258Z,1.60
2019-05-28T16:44:09.731Z,1.77
2019-05-28T16:46:38.384Z,1.80
2019-05-28T16:49:06.360Z,1.70
2019-05-28T16:51:34.418Z,1.90
2019-05-28T16:54:18.062Z,1.83
2019-05-28T16:56:32.486Z,1.53
2019-05-28T16:59:00.371Z,1.43
2019-05-28T17:01:27.884Z,1.80
2019-05-28T17:03:55.371Z,1.53
2019-05-28T17:06:22.868Z,1.97
2019-05-28T17:08:50.324Z,1.50
2019-05-28T17:11:18.273Z,1.40
2019-05-28T17:13:48.014Z,1.70
2019-05-28T17:16:15.424Z,1.60
2019-05-28T17:18:43.456Z,1.53
2019-05-28T17:21:11.254Z,2.00
2019-05-28T17:23:38.830Z,1.37
2019-05-28T17:26:06.752Z,2.20
2019-05-28T17:28:34.390Z,3.13
2019-05-28T17:31:01.959Z,2.40
2019-05-28T17:33:29.567Z,3.03
2019-05-28T17:35:57.660Z,3.20
2019-05-28T17:38:26.204Z,1.90
2019-05-28T17:40:53.821Z,2.10
2019-05-28T17:43:21.559Z,2.20
2019-05-28T17:45:49.337Z,2.90
2019-05-28T17:48:16.793Z,1.43
2019-05-28T17:50:44.220Z,1.60
2019-05-28T17:53:11.588Z,1.77
2019-05-28T17:55:38.955Z,2.23
2019-05-28T17:58:06.300Z,1.97
2019-05-28T18:00:33.842Z,2.07
2019-05-28T18:03:01.736Z,2.03
2019-05-28T18:05:30.161Z,2.20
2019-05-28T18:07:57.653Z,1.70
2019-05-28T18:10:24.985Z,2.07
2019-05-28T18:12:52.488Z,1.67
2019-05-28T18:15:20.353Z,2.03
2019-05-28T18:17:47.690Z,1.50
2019-05-28T18:20:15.722Z,1.80
2019-05-28T18:22:43.386Z,2.10
2019-05-28T18:25:10.952Z,1.90
2019-05-28T18:27:38.627Z,2.00
2019-05-28T18:30:07.910Z,1.53
2019-05-28T18:32:36.156Z,1.60
2019-05-28T18:35:04.447Z,1.43
2019-05-28T18:37:32.445Z,2.53
2019-05-28T18:39:59.968Z,2.60
2019-05-28T18:42:27.487Z,1.90
2019-05-28T18:44:56.650Z,1.60
2019-05-28T18:47:25.221Z,1.80
2019-05-28T18:49:52.740Z,2.57
2019-05-28T18:52:20.580Z,1.50
2019-05-28T18:54:48.084Z,1.40
2019-05-28T18:57:15.883Z,1.80
2019-05-28T18:59:43.606Z,2.13
2019-05-28T19:02:11.444Z,1.90
2019-05-28T19:04:40.192Z,2.00
2019-05-28T19:07:07.984Z,2.53
2019-05-28T19:09:36.072Z,2.03
2019-05-28T19:12:03.515Z,1.70
2019-05-28T19:14:31.100Z,1.70
2019-05-28T19:16:58.628Z,1.87
2019-05-28T19:19:26.034Z,1.70
2019-05-28T19:21:54.137Z,1.97
2019-05-28T19:24:21.805Z,2.10
2019-05-28T19:26:49.137Z,2.10
2019-05-28T19:29:16.511Z,1.93
2019-05-28T19:31:44.276Z,2.47
2019-05-28T19:34:12.141Z,1.93
2019-05-28T19:36:39.893Z,2.30
2019-05-28T19:39:07.426Z,1.70
2019-05-28T19:41:35.332Z,1.80
2019-05-28T19:44:02.737Z,1.60
2019-05-28T19:46:31.845Z,1.70
2019-05-28T19:48:59.578Z,1.77
2019-05-28T19:51:27.450Z,1.80
2019-05-28T19:53:54.804Z,1.70
2019-05-28T19:56:22.138Z,2.70
2019-05-28T19:58:49.591Z,1.40
2019-05-28T20:01:17.148Z,1.63
2019-05-28T20:03:45.116Z,1.60
2019-05-28T20:06:13.069Z,1.70
2019-05-28T20:08:40.833Z,1.80
2019-05-28T20:11:08.318Z,2.53
2019-05-28T20:13:36.377Z,1.60
2019-05-28T20:16:04.006Z,1.30
2019-05-28T20:18:31.646Z,1.20
2019-05-28T20:20:59.614Z,2.20
2019-05-28T20:23:27.059Z,2.23
2019-05-28T20:25:54.840Z,2.20
2019-05-28T20:28:24.180Z,2.70
2019-05-28T20:30:51.549Z,3.37
2019-05-28T20:33:19.423Z,2.47
2019-05-28T20:35:46.786Z,1.77
2019-05-28T20:38:14.878Z,1.23
2019-05-28T20:40:42.474Z,1.90
2019-05-28T20:43:10.307Z,1.67
2019-05-28T20:45:37.827Z,1.43
2019-05-28T20:48:06.584Z,1.70
2019-05-28T20:50:34.639Z,2.00
2019-05-28T20:53:02.199Z,1.70
2019-05-28T20:55:29.995Z,1.63
2019-05-28T20:57:57.752Z,1.93
2019-05-28T21:00:25.653Z,2.27
2019-05-28T21:02:53.810Z,1.80
2019-05-28T21:05:21.384Z,1.77
2019-05-28T21:07:50.087Z,1.70
2019-05-28T21:10:18.567Z,2.10
2019-05-28T21:12:46.482Z,1.57
2019-05-28T21:15:16.339Z,1.60
2019-05-28T21:17:44.226Z,1.60
2019-05-28T21:20:12.670Z,1.57
2019-05-28T21:22:40.191Z,1.40
2019-05-28T21:25:07.974Z,1.20
2019-05-28T21:27:36.036Z,1.20
2019-05-28T21:30:04.276Z,1.60
2019-05-28T21:32:32.409Z,1.53
2019-05-28T21:35:02.306Z,1.40
2019-05-28T21:37:31.545Z,1.87
2019-05-28T21:39:59.634Z,1.67
2019-05-28T21:42:27.139Z,1.40
2019-05-28T21:44:55.952Z,1.10
2019-05-28T21:47:23.542Z,1.70
2019-05-28T21:49:51.135Z,1.17
2019-05-28T21:52:18.639Z,1.50
2019-05-28T21:54:59.203Z,1.40
2019-05-28T21:57:27.193Z,1.20
2019-05-28T21:59:55.722Z,1.60
2019-05-28T22:02:23.404Z,1.43
2019-05-28T22:04:50.878Z,1.50
2019-05-28T22:07:18.380Z,1.40
2019-05-28T22:09:46.047Z,1.57
2019-05-28T22:12:46.038Z,1.40
2019-05-28T22:15:13.648Z,1.50
2019-05-28T22:17:41.878Z,1.40
2019-05-28T22:20:09.792Z,1.20
2019-05-28T22:22:37.340Z,1.23
2019-05-28T22:25:05.717Z,1.50
2019-05-28T22:27:33.217Z,1.33
2019-05-28T22:30:00.758Z,1.73
2019-05-28T22:32:28.351Z,1.60
2019-05-28T22:34:55.925Z,1.43
2019-05-28T22:37:23.724Z,1.50
2019-05-28T22:39:51.856Z,1.50
2019-05-28T22:42:20.723Z,1.60
2019-05-28T22:44:48.225Z,2.43
2019-05-28T22:47:15.965Z,1.53
2019-05-28T22:49:43.922Z,1.53
2019-05-28T22:52:11.527Z,2.03
2019-05-28T22:54:39.457Z,1.67
2019-05-28T22:57:08.474Z,1.40
2019-05-28T22:59:36.575Z,1.93
2019-05-28T23:02:05.045Z,1.70
2019-05-28T23:04:33.909Z,2.00
2019-05-28T23:07:01.619Z,2.30
2019-05-28T23:09:29.021Z,2.00
2019-05-28T23:11:56.510Z,2.10
2019-05-28T23:14:24.484Z,1.97
2019-05-28T23:16:52.359Z,2.20
2019-05-28T23:19:20.439Z,1.63
2019-05-28T23:21:48.015Z,1.70
2019-05-28T23:24:15.552Z,2.10
2019-05-28T23:26:43.075Z,1.73
2019-05-28T23:29:11.908Z,1.30
2019-05-28T23:31:39.798Z,1.80
2019-05-28T23:34:08.390Z,1.40
2019-05-28T23:36:37.090Z,1.87
2019-05-28T23:39:06.904Z,1.50
2019-05-28T23:41:34.619Z,1.67
2019-05-28T23:44:02.744Z,1.80
2019-05-28T23:46:31.487Z,1.80
2019-05-28T23:48:59.240Z,2.13
2019-05-28T23:51:26.733Z,2.07
2019-05-28T23:53:54.243Z,1.80
2019-05-28T23:56:21.629Z,1.57
2019-05-28T23:58:49.203Z,1.97
